Fellows, California
Current Conditions -  °F | °C
As of 12:54 PM on Thursday 18 Dec 2014 (Local Time) from KBFL Reporting Station
Clear Clear  
Wind Chill: 62°   Ceiling: Unl
Heat Index: 62°   Visibility: 10mi
Dew Point: 37°   Wind: 3mph
Humidity: 39%   Direction: 310°NW
Pressure: 30.14"   Gusts: NA
Location:  35.18°N, 119.54°W
Report Text: KBFL 182054Z 31003KT 10SM CLR 17/03 A3014 RMK AO2 SLP203 T01670028 58018
Loading
Personal Weather Stations






























Interactive Weather Map New forecast layout! Learn more

10-Day Weather Forecast

Advertisements
Track Severe Weather on mobile